Date,TemperatureHighF,TemperatureAvgF,TemperatureLowF,DewpointHighF,DewpointAvgF,DewpointLowF,HumidityHigh,HumidityAvg,HumidityLow,PressureMaxIn,PressureMinIn,WindSpeedMaxMPH,WindSpeedAvgMPH,GustSpeedMaxMPH,PrecipitationSumIn
2013-9-1,73.9,65.3,56.8,64.4,60.8,54.7,98,86,65,29.97,29.76,7,1,13,0.05
2013-9-2,63.3,55.9,46.9,55.0,51.1,45.6,98,85,64,30.06,29.94,4,1,9,0.00
2013-9-3,74.1,55.4,41.2,58.4,49.4,40.7,98,83,49,30.06,30.00,5,1,16,0.00
2013-9-4,71.8,61.9,51.6,59.5,55.6,49.7,98,81,52,30.18,29.97,4,1,12,0.00
2013-9-5,74.3,59.8,45.9,55.9,49.7,45.3,98,74,41,30.27,30.12,4,1,11,0.00
2013-9-6,83.3,68.2,58.5,70.1,61.4,52.2,97,80,63,30.15,29.97,12,1,18,0.00
2013-9-7,85.5,69.4,60.3,73.9,64.8,57.6,98,86,61,30.15,29.91,7,1,13,0.00
2013-9-8,68.4,60.7,52.2,60.7,54.5,50.5,96,81,55,30.12,29.94,4,1,11,0.00
2013-9-9,78.1,67.8,61.2,73.6,66.2,59.1,98,95,85,29.94,29.74,4,1,13,0.49
2013-9-10,75.4,69.1,63.1,69.8,67.1,62.6,98,94,76,29.97,29.79,4,1,18,0.09
2013-9-11,77.4,65.3,57.4,66.9,58.4,49.1,98,81,42,30.06,29.97,10,1,15,0.00
2013-9-12,64.2,56.6,44.8,56.5,50.5,42.3,98,82,53,30.24,30.03,6,1,14,0.04
2013-9-13,63.3,49.6,37.6,53.9,43.9,36.5,98,83,51,30.27,30.09,3,0,10,0.00
2013-9-14,70.9,56.1,43.7,54.9,49.5,42.5,97,81,49,30.09,29.94,7,1,17,0.16
2013-9-15,57.2,52.6,38.8,55.6,50.3,37.5,98,92,79,30.33,29.94,6,1,12,0.13
2013-9-16,63.0,47.3,33.6,48.3,40.5,33.0,98,80,46,30.44,30.30,5,1,12,0.00
2013-9-17,67.8,55.3,43.7,52.6,45.3,40.9,97,72,44,30.30,30.03,8,3,23,0.00
2013-9-18,65.8,61.3,56.3,65.3,60.6,53.4,98,97,86,30.00,29.79,5,1,14,0.20
2013-9-19,72.1,66.9,64.2,70.9,66.3,63.7,98,98,96,29.82,29.71,7,1,25,1.25
2013-9-20,65.3,57.7,48.2,64.7,55.3,45.5,98,92,71,29.88,29.76,3,0,10,0.09
2013-9-21,57.9,49.6,42.1,47.8,43.4,39.0,96,81,54,29.97,29.85,5,1,11,0.00
2013-9-22,62.2,49.8,38.5,47.5,42.1,38.0,98,77,48,30.06,29.97,6,1,15,0.00
2013-9-23,68.4,56.6,46.9,51.3,47.3,42.2,95,73,48,30.06,29.97,7,2,19,0.00
2013-9-24,70.9,57.7,47.3,54.2,49.6,46.8,98,78,44,30.06,30.00,5,2,11,0.00
2013-9-25,70.7,59.5,45.3,57.7,51.3,44.8,98,77,50,29.97,29.91,8,1,15,0.00
2013-9-26,71.4,59.2,47.5,54.9,50.9,46.4,98,76,51,29.97,29.91,7,2,17,0.00
2013-9-27,74.1,66.6,58.6,60.6,54.8,49.6,74,66,52,29.97,29.85,7,3,17,0.00
2013-9-28,71.1,60.3,48.2,63.1,53.1,47.7,98,79,50,29.88,29.59,18,3,28,0.42
2013-9-29,69.6,55.5,44.1,52.7,46.6,43.3,98,76,40,29.91,29.79,8,1,18,0.04
2013-9-30,71.4,61.6,52.9,51.0,48.2,45.3,79,62,46,29.82,29.65,11,3,30,0.00